createdAt,value
2024-05-09T00:01:26.283Z,100567.16
2024-05-09T00:03:28.041Z,100559.94
2024-05-09T00:05:29.933Z,100560.03
2024-05-09T00:07:31.600Z,100568.19
2024-05-09T00:09:33.257Z,100560.03
2024-05-09T00:11:35.002Z,100561.75
2024-05-09T00:13:36.723Z,100562.88
2024-05-09T00:15:38.345Z,100558.50
2024-05-09T00:17:40.353Z,100557.38
2024-05-09T00:19:42.763Z,100555.69
2024-05-09T00:21:44.409Z,100558.34
2024-05-09T00:23:46.039Z,100553.13
2024-05-09T00:25:47.733Z,100553.00
2024-05-09T00:27:49.386Z,100558.50
2024-05-09T00:29:51.034Z,100562.97
2024-05-09T00:31:52.910Z,100555.09
2024-05-09T00:33:54.731Z,100551.69
2024-05-09T00:35:56.469Z,100552.53
2024-05-09T00:37:58.251Z,100545.50
2024-05-09T00:39:59.911Z,100550.13
2024-05-09T00:42:01.527Z,100549.88
2024-05-09T00:44:03.547Z,100556.44
2024-05-09T00:46:06.149Z,100555.84
2024-05-09T00:48:11.606Z,100555.00
2024-05-09T00:50:19.422Z,100556.63
2024-05-09T00:52:24.867Z,100557.53
2024-05-09T00:54:27.513Z,100555.09
2024-05-09T00:56:29.290Z,100549.88
2024-05-09T00:58:31.264Z,100554.22
2024-05-09T01:00:38.713Z,100547.97
2024-05-09T01:02:42.462Z,100551.47
2024-05-09T01:04:44.341Z,100548.81
2024-05-09T01:06:46.798Z,100550.25
2024-05-09T01:08:48.536Z,100549.78
2024-05-09T01:10:50.278Z,100551.69
2024-05-09T01:12:51.992Z,100546.91
2024-05-09T01:14:53.660Z,100550.91
2024-05-09T01:16:55.576Z,100550.53
2024-05-09T01:18:58.363Z,100554.03
2024-05-09T01:21:00.122Z,100551.97
2024-05-09T01:23:05.550Z,100554.81
2024-05-09T01:25:07.223Z,100547.31
2024-05-09T01:27:08.847Z,100549.38
2024-05-09T01:29:10.612Z,100546.91
2024-05-09T01:31:14.770Z,100542.72
2024-05-09T01:33:16.676Z,100543.22
2024-05-09T01:35:22.323Z,100532.84
2024-05-09T01:37:23.980Z,100530.66
2024-05-09T01:39:25.604Z,100541.50
2024-05-09T01:41:27.357Z,100546.13
2024-05-09T01:43:29.015Z,100542.97
2024-05-09T01:45:30.632Z,100545.97
2024-05-09T01:47:32.353Z,100545.97
2024-05-09T01:49:36.330Z,100542.56
2024-05-09T01:51:38.024Z,100541.19
2024-05-09T01:53:39.694Z,100546.50
2024-05-09T01:55:41.979Z,100545.66
2024-05-09T01:57:43.634Z,100554.56
2024-05-09T01:59:46.234Z,100548.75
2024-05-09T02:01:56.595Z,100561.25
2024-05-09T02:03:59.557Z,100561.88
2024-05-09T02:06:01.606Z,100554.13
2024-05-09T02:08:04.214Z,100551.03
2024-05-09T02:10:13.633Z,100558.06
2024-05-09T02:12:18.333Z,100556.25
2024-05-09T02:14:20.134Z,100560.09
2024-05-09T02:16:21.802Z,100562.06
2024-05-09T02:18:23.686Z,100556.59
2024-05-09T02:20:33.113Z,100554.69
2024-05-09T02:22:37.675Z,100553.38
2024-05-09T02:24:39.302Z,100543.84
2024-05-09T02:26:41.009Z,100555.75
2024-05-09T02:28:42.652Z,100554.69
2024-05-09T02:30:44.279Z,100557.75
2024-05-09T02:32:46.115Z,100555.19
2024-05-09T02:34:47.952Z,100553.28
2024-05-09T02:36:49.584Z,100556.03
2024-05-09T02:38:51.220Z,100560.78
2024-05-09T02:40:52.892Z,100558.03
2024-05-09T02:42:54.506Z,100553.84
2024-05-09T02:44:56.143Z,100551.09
2024-05-09T02:46:57.763Z,100548.03
2024-05-09T02:48:59.504Z,100551.56
2024-05-09T02:51:01.662Z,100549.84
2024-05-09T02:53:03.460Z,100556.38
2024-05-09T02:55:05.107Z,100552.38
2024-05-09T02:57:07.075Z,100550.94
2024-05-09T02:59:08.732Z,100556.25
2024-05-09T03:01:10.427Z,100554.28
2024-05-09T03:03:14.503Z,100554.56
2024-05-09T03:05:17.396Z,100562.72
2024-05-09T03:07:20.253Z,100558.69
2024-05-09T03:09:22.897Z,100557.72
2024-05-09T03:11:25.341Z,100557.91
2024-05-09T03:13:27.212Z,100564.53
2024-05-09T03:15:31.638Z,100566.16
2024-05-09T03:17:33.613Z,100560.16
2024-05-09T03:19:35.926Z,100560.16
2024-05-09T03:21:40.618Z,100554.94
2024-05-09T03:23:42.970Z,100560.09
2024-05-09T03:25:44.814Z,100560.84
2024-05-09T03:27:46.810Z,100561.00
2024-05-09T03:29:48.448Z,100552.13
2024-05-09T03:31:50.152Z,100553.19
2024-05-09T03:33:51.960Z,100559.09
2024-05-09T03:35:53.620Z,100565.19
2024-05-09T03:37:55.284Z,100555.59
2024-05-09T03:39:56.923Z,100561.06
2024-05-09T03:41:58.567Z,100556.88
2024-05-09T03:44:00.280Z,100566.13
2024-05-09T03:46:01.962Z,100562.81
2024-05-09T03:48:03.821Z,100560.06
2024-05-09T03:50:07.801Z,100561.06
2024-05-09T03:52:13.731Z,100565.69
2024-05-09T03:54:15.410Z,100565.19
2024-05-09T03:56:17.332Z,100566.03
2024-05-09T03:58:19.049Z,100566.72
2024-05-09T04:00:30.483Z,100568.53
2024-05-09T04:02:41.486Z,100565.50
2024-05-09T04:04:43.871Z,100572.53
2024-05-09T04:06:45.551Z,100569.94
2024-05-09T04:08:48.762Z,100574.41
2024-05-09T04:10:50.508Z,100567.88
2024-05-09T04:12:52.316Z,100576.44
2024-05-09T04:14:53.940Z,100560.28
2024-05-09T04:16:55.689Z,100570.81
2024-05-09T04:18:57.441Z,100570.28
2024-05-09T04:20:59.309Z,100570.28
2024-05-09T04:23:01.126Z,100581.47
2024-05-09T04:25:02.891Z,100588.53
2024-05-09T04:27:04.609Z,100590.63
2024-05-09T04:29:06.792Z,100586.06
2024-05-09T04:31:08.471Z,100585.56
2024-05-09T04:33:12.439Z,100591.66
2024-05-09T04:35:19.100Z,100592.59
2024-05-09T04:37:20.736Z,100603.66
2024-05-09T04:39:22.361Z,100602.59
2024-05-09T04:41:24.044Z,100606.38
2024-05-09T04:43:25.686Z,100593.66
2024-05-09T04:45:27.380Z,100600.59
2024-05-09T04:47:29.107Z,100596.13
2024-05-09T04:49:31.100Z,100595.09
2024-05-09T04:51:34.355Z,100600.91
2024-05-09T04:53:36.198Z,100599.97
2024-05-09T04:55:38.839Z,100598.31
2024-05-09T04:57:40.475Z,100609.06
2024-05-09T04:59:42.418Z,100610.78
2024-05-09T05:01:45.039Z,100603.00
2024-05-09T05:03:48.201Z,100605.41
2024-05-09T05:05:49.978Z,100611.09
2024-05-09T05:07:51.735Z,100607.88
2024-05-09T05:09:53.362Z,100609.72
2024-05-09T05:11:55.105Z,100606.47
2024-05-09T05:13:56.818Z,100608.16
2024-05-09T05:15:58.879Z,100609.66
2024-05-09T05:18:00.711Z,100604.66
2024-05-09T05:20:02.974Z,100614.47
2024-05-09T05:22:04.892Z,100619.72
2024-05-09T05:24:06.516Z,100615.25
2024-05-09T05:26:08.199Z,100621.66
2024-05-09T05:28:10.131Z,100617.75
2024-05-09T05:32:16.497Z,100621.03
2024-05-09T05:34:18.216Z,100619.00
2024-05-09T05:36:19.860Z,100623.25
2024-05-09T05:38:25.032Z,100617.41
2024-05-09T05:40:36.565Z,100628.38
2024-05-09T05:42:39.814Z,100630.66
2024-05-09T05:44:41.541Z,100641.06
2024-05-09T05:46:43.206Z,100636.75
2024-05-09T05:48:44.909Z,100632.84
2024-05-09T05:50:46.857Z,100639.03
2024-05-09T05:52:48.596Z,100648.84
2024-05-09T05:54:50.758Z,100648.84
2024-05-09T05:56:52.391Z,100640.38
2024-05-09T05:58:54.089Z,100641.41
2024-05-09T06:00:55.795Z,100651.22
2024-05-09T06:02:57.555Z,100654.03
2024-05-09T06:04:59.348Z,100651.69
2024-05-09T06:07:01.074Z,100653.19
2024-05-09T06:09:02.714Z,100657.34
2024-05-09T06:11:04.466Z,100651.25
2024-05-09T06:13:06.737Z,100652.41
2024-05-09T06:15:08.375Z,100652.53
2024-05-09T06:17:10.244Z,100653.38
2024-05-09T06:19:12.091Z,100660.97
2024-05-09T06:21:16.512Z,100657.91
2024-05-09T06:23:18.436Z,100663.63
2024-05-09T06:25:20.165Z,100663.84
2024-05-09T06:27:21.802Z,100671.97
2024-05-09T06:29:23.460Z,100665.78
2024-05-09T06:31:25.158Z,100660.94
2024-05-09T06:33:27.001Z,100662.28
2024-05-09T06:35:28.823Z,100660.19
2024-05-09T06:37:30.487Z,100670.00
2024-05-09T06:39:32.118Z,100659.78
2024-05-09T06:41:33.829Z,100660.81
2024-05-09T06:43:36.552Z,100662.41
2024-05-09T06:45:38.503Z,100670.69
2024-05-09T06:47:40.563Z,100665.19
2024-05-09T06:49:42.516Z,100670.75
2024-05-09T06:51:44.158Z,100679.13
2024-05-09T06:53:46.124Z,100672.44
2024-05-09T06:55:48.279Z,100672.09
2024-05-09T06:57:49.931Z,100670.88
2024-05-09T06:59:51.574Z,100664.69
2024-05-09T07:01:53.214Z,100672.63
2024-05-09T07:03:54.933Z,100672.00
2024-05-09T07:05:56.819Z,100674.69
2024-05-09T07:07:58.464Z,100681.13
2024-05-09T07:10:00.131Z,100678.84
2024-05-09T07:12:02.524Z,100677.50
2024-05-09T07:14:04.915Z,100685.00
2024-05-09T07:16:06.678Z,100678.00
2024-05-09T07:18:15.295Z,100685.00
2024-05-09T07:20:23.639Z,100678.09
2024-05-09T07:22:33.660Z,100686.72
2024-05-09T07:24:36.321Z,100686.03
2024-05-09T07:26:38.146Z,100685.38
2024-05-09T07:28:39.905Z,100686.03
2024-05-09T07:30:41.962Z,100690.97
2024-05-09T07:32:43.935Z,100684.13
2024-05-09T07:34:45.748Z,100690.59
2024-05-09T07:36:47.411Z,100678.91
2024-05-09T07:38:49.104Z,100683.41
2024-05-09T07:40:50.846Z,100685.56
2024-05-09T07:42:52.584Z,100683.72
2024-05-09T07:44:55.516Z,100691.56
2024-05-09T07:50:53.117Z,100689.38
2024-05-09T07:53:40.004Z,100696.09
2024-05-09T07:55:46.292Z,100693.03
2024-05-09T07:57:48.019Z,100689.47
2024-05-09T07:59:49.667Z,100693.72
2024-05-09T08:01:51.363Z,100697.19
2024-05-09T08:03:53.967Z,100694.59
2024-05-09T08:05:55.758Z,100697.75
2024-05-09T08:07:57.369Z,100707.81
2024-05-09T08:09:59.053Z,100709.63
2024-05-09T08:12:00.674Z,100706.81
2024-05-09T08:14:02.311Z,100711.72
2024-05-09T08:16:04.315Z,100711.34
2024-05-09T08:18:10.181Z,100710.38
2024-05-09T08:20:15.877Z,100715.59
2024-05-09T08:22:20.445Z,100712.06
2024-05-09T08:24:22.100Z,100715.81
2024-05-09T08:26:23.717Z,100712.66
2024-05-09T08:28:25.398Z,100708.25
2024-05-09T08:30:33.203Z,100710.25
2024-05-09T08:32:39.421Z,100715.03
2024-05-09T08:34:41.435Z,100707.09
2024-05-09T08:36:43.153Z,100709.47
2024-05-09T08:38:44.812Z,100709.03
2024-05-09T08:40:47.648Z,100702.19
2024-05-09T08:42:54.240Z,100704.22
2024-05-09T08:44:55.899Z,100703.97
2024-05-09T08:46:58.630Z,100702.25
2024-05-09T08:49:02.664Z,100706.72
2024-05-09T08:51:05.749Z,100706.91
2024-05-09T08:53:07.765Z,100709.69
2024-05-09T08:55:10.008Z,100718.16
2024-05-09T08:57:13.695Z,100712.06
2024-05-09T08:59:22.780Z,100708.97
2024-05-09T09:01:29.355Z,100713.59
2024-05-09T09:03:32.900Z,100714.09
2024-05-09T09:05:38.293Z,100706.88
2024-05-09T09:07:40.091Z,100697.53
2024-05-09T09:09:44.725Z,100695.81
2024-05-09T09:11:46.389Z,100696.31
2024-05-09T09:13:48.739Z,100681.94
2024-05-09T09:15:51.000Z,100692.00
2024-05-09T09:17:55.027Z,100687.59
2024-05-09T09:19:58.700Z,100691.16
2024-05-09T09:22:00.499Z,100689.28
2024-05-09T09:24:02.344Z,100684.88
2024-05-09T09:26:04.337Z,100689.94
2024-05-09T09:28:06.383Z,100688.25
2024-05-09T09:30:18.466Z,100690.25
2024-05-09T09:32:29.697Z,100687.53
2024-05-09T09:34:32.322Z,100687.56
2024-05-09T09:36:37.349Z,100684.97
2024-05-09T09:38:41.772Z,100680.63
2024-05-09T09:40:49.792Z,100671.47
2024-05-09T09:42:56.591Z,100676.56
2024-05-09T09:45:04.685Z,100678.00
2024-05-09T09:47:08.426Z,100670.59
2024-05-09T09:49:10.771Z,100669.97
2024-05-09T09:51:15.370Z,100660.97
2024-05-09T09:53:18.195Z,100658.63
2024-05-09T09:55:21.653Z,100664.25
2024-05-09T09:57:26.102Z,100664.41
2024-05-09T09:59:28.634Z,100669.94
2024-05-09T10:01:30.887Z,100660.72
2024-05-09T10:03:33.049Z,100669.06
2024-05-09T10:05:35.611Z,100669.09
2024-05-09T10:07:42.563Z,100657.69
2024-05-09T10:09:45.053Z,100662.53
2024-05-09T10:11:52.005Z,100656.81
2024-05-09T10:13:56.613Z,100654.66
2024-05-09T10:16:06.841Z,100651.22
2024-05-09T10:18:08.661Z,100647.97
2024-05-09T10:20:18.312Z,100657.50
2024-05-09T10:22:29.900Z,100652.09
2024-05-09T10:24:52.362Z,100644.19
2024-05-09T10:26:55.214Z,100644.56
2024-05-09T10:28:57.640Z,100646.38
2024-05-09T10:31:07.411Z,100640.25
2024-05-09T10:33:10.035Z,100636.25
2024-05-09T10:35:13.852Z,100625.41
2024-05-09T10:37:17.981Z,100630.59
2024-05-09T10:39:20.614Z,100626.03
2024-05-09T10:41:23.122Z,100617.50
2024-05-09T10:43:25.814Z,100616.63
2024-05-09T10:45:27.558Z,100621.06
2024-05-09T10:47:29.390Z,100618.66
2024-05-09T10:49:31.146Z,100620.94
2024-05-09T10:51:33.872Z,100627.59
2024-05-09T10:53:46.927Z,100621.28
2024-05-09T10:55:58.694Z,100627.19
2024-05-09T10:58:00.473Z,100615.50
2024-05-09T11:00:04.930Z,100608.88
2024-05-09T11:02:09.610Z,100608.44
2024-05-09T11:04:12.881Z,100606.72
2024-05-09T11:06:16.250Z,100605.97
2024-05-09T11:08:20.975Z,100604.56
2024-05-09T11:10:31.582Z,100602.91
2024-05-09T11:12:35.759Z,100609.03
2024-05-09T11:14:37.523Z,100594.34
2024-05-09T11:16:39.220Z,100583.88
2024-05-09T11:18:41.212Z,100593.50
2024-05-09T11:20:43.097Z,100590.34
2024-05-09T11:22:45.093Z,100583.94
2024-05-09T11:24:47.727Z,100585.75
2024-05-09T11:26:49.428Z,100589.00
2024-05-09T11:28:51.205Z,100586.75
2024-05-09T11:31:06.971Z,100585.25
2024-05-09T11:33:19.139Z,100583.13
2024-05-09T11:35:20.863Z,100582.00
2024-05-09T11:37:22.533Z,100582.63
2024-05-09T11:39:24.423Z,100577.75
2024-05-09T11:41:26.131Z,100579.47
2024-05-09T11:43:27.866Z,100577.19
2024-05-09T11:45:29.566Z,100574.22
2024-05-09T11:47:31.272Z,100573.00
2024-05-09T11:49:33.275Z,100578.22
2024-05-09T11:51:35.071Z,100576.13
2024-05-09T11:53:36.748Z,100579.59
2024-05-09T11:55:38.380Z,100569.19
2024-05-09T11:57:40.068Z,100577.03
2024-05-09T11:59:41.735Z,100564.94
2024-05-09T12:01:43.754Z,100557.63
2024-05-09T12:03:47.352Z,100561.47
2024-05-09T12:05:49.326Z,100560.91
2024-05-09T12:07:51.679Z,100557.34
2024-05-09T12:09:53.362Z,100564.09
2024-05-09T12:11:55.111Z,100566.94
2024-05-09T12:13:56.752Z,100553.78
2024-05-09T12:15:58.494Z,100551.91
2024-05-09T12:18:02.891Z,100555.50
2024-05-09T12:20:11.341Z,100546.16
2024-05-09T12:22:19.005Z,100547.69
2024-05-09T12:24:20.667Z,100541.19
2024-05-09T12:26:22.392Z,100537.06
2024-05-09T12:28:25.327Z,100543.78
2024-05-09T12:30:34.949Z,100539.81
2024-05-09T12:32:40.253Z,100550.25
2024-05-09T12:34:41.999Z,100543.66
2024-05-09T12:36:43.778Z,100539.22
2024-05-09T12:38:45.477Z,100533.13
2024-05-09T12:40:47.178Z,100539.81
2024-05-09T12:42:48.894Z,100534.53
2024-05-09T12:44:50.612Z,100542.41
2024-05-09T12:46:52.292Z,100532.09
2024-05-09T12:48:54.336Z,100527.13
2024-05-09T12:50:56.496Z,100530.16
2024-05-09T12:52:58.173Z,100527.22
2024-05-09T12:54:59.841Z,100532.38
2024-05-09T12:57:01.485Z,100526.75
2024-05-09T12:59:03.155Z,100525.91
2024-05-09T13:01:04.879Z,100525.06
2024-05-09T13:03:06.669Z,100530.66
2024-05-09T13:05:09.494Z,100519.06
2024-05-09T13:07:11.367Z,100524.50
2024-05-09T13:09:13.090Z,100532.28
2024-05-09T13:11:14.991Z,100525.34
2024-05-09T13:13:17.016Z,100519.81
2024-05-09T13:15:18.800Z,100514.84
2024-05-09T13:17:20.711Z,100519.25
2024-05-09T13:19:22.708Z,100525.97
2024-05-09T13:21:24.423Z,100522.16
2024-05-09T13:23:26.036Z,100514.84
2024-05-09T13:25:27.729Z,100523.22
2024-05-09T13:27:29.420Z,100518.75
2024-05-09T13:29:31.193Z,100519.47
2024-05-09T13:31:32.851Z,100511.25
2024-05-09T13:33:34.676Z,100514.81
2024-05-09T13:35:36.526Z,100503.56
2024-05-09T13:37:38.259Z,100505.94
2024-05-09T13:39:40.005Z,100505.81
2024-05-09T13:41:41.845Z,100496.66
2024-05-09T13:43:43.497Z,100499.63
2024-05-09T13:45:45.985Z,100494.81
2024-05-09T13:47:47.996Z,100487.81
2024-05-09T13:49:49.926Z,100491.91
2024-05-09T13:51:51.659Z,100485.78
2024-05-09T13:53:55.579Z,100489.97
2024-05-09T13:55:57.297Z,100481.66
2024-05-09T13:57:59.659Z,100485.16
2024-05-09T14:00:01.366Z,100486.22
2024-05-09T14:02:13.239Z,100490.69
2024-05-09T14:04:15.861Z,100490.31
2024-05-09T14:06:17.965Z,100489.84
2024-05-09T14:08:20.717Z,100482.09
2024-05-09T14:10:28.516Z,100482.34
2024-05-09T14:12:32.661Z,100479.03
2024-05-09T14:14:34.341Z,100485.16
2024-05-09T14:16:37.183Z,100486.41
2024-05-09T14:18:38.984Z,100483.59
2024-05-09T14:20:41.337Z,100477.94
2024-05-09T14:22:43.002Z,100483.53
2024-05-09T14:24:44.684Z,100491.22
2024-05-09T14:26:46.306Z,100477.78
2024-05-09T14:28:47.949Z,100485.25
2024-05-09T14:30:49.831Z,100480.81
2024-05-09T14:32:52.168Z,100475.59
2024-05-09T14:34:54.089Z,100476.28
2024-05-09T14:36:57.619Z,100476.84
2024-05-09T14:38:59.338Z,100473.78
2024-05-09T14:41:01.030Z,100462.13
2024-05-09T14:43:03.365Z,100470.91
2024-05-09T14:45:05.406Z,100463.47
2024-05-09T14:47:08.911Z,100463.97
2024-05-09T14:49:12.468Z,100461.94
2024-05-09T14:51:15.342Z,100467.00
2024-05-09T14:53:16.953Z,100462.44
2024-05-09T14:55:18.618Z,100464.31
2024-05-09T14:57:20.274Z,100459.59
2024-05-09T14:59:21.889Z,100464.47
2024-05-09T15:01:23.866Z,100466.84
2024-05-09T15:03:26.043Z,100461.78
2024-05-09T15:05:28.284Z,100462.97
2024-05-09T15:07:30.064Z,100460.94
2024-05-09T15:09:35.892Z,100459.41
2024-05-09T15:11:37.571Z,100457.38
2024-05-09T15:13:39.312Z,100457.72
2024-05-09T15:15:41.560Z,100450.94
2024-05-09T15:17:43.847Z,100449.56
2024-05-09T15:19:45.611Z,100447.09
2024-05-09T15:21:47.324Z,100444.91
2024-05-09T15:23:48.975Z,100447.09
2024-05-09T15:25:50.610Z,100448.28
2024-05-09T15:27:52.354Z,100446.78
2024-05-09T15:29:54.006Z,100441.38
2024-05-09T15:31:55.692Z,100442.72
2024-05-09T15:33:57.407Z,100444.09
2024-05-09T15:35:59.142Z,100438.16
2024-05-09T15:38:01.683Z,100438.66
2024-05-09T15:40:04.464Z,100441.63
2024-05-09T15:42:07.089Z,100432.50
2024-05-09T15:44:08.730Z,100439.97
2024-05-09T15:46:11.207Z,100435.19
2024-05-09T15:48:13.167Z,100441.63
2024-05-09T15:50:20.565Z,100437.91
2024-05-09T15:52:30.080Z,100433.13
2024-05-09T15:54:31.745Z,100438.63
2024-05-09T15:56:34.842Z,100435.25
2024-05-09T15:58:36.466Z,100430.91
2024-05-09T16:00:41.546Z,100435.22
2024-05-09T16:02:46.687Z,100435.16
2024-05-09T16:04:48.669Z,100438.59
2024-05-09T16:06:50.437Z,100434.41
2024-05-09T16:08:52.114Z,100429.97
2024-05-09T16:10:53.833Z,100433.94
2024-05-09T16:12:56.082Z,100431.09
2024-05-09T16:14:57.811Z,100438.69
2024-05-09T16:16:59.627Z,100442.91
2024-05-09T16:19:01.555Z,100435.72
2024-05-09T16:21:04.280Z,100432.88
2024-05-09T16:23:06.604Z,100441.19
2024-05-09T16:25:08.361Z,100434.50
2024-05-09T16:27:10.535Z,100433.06
2024-05-09T16:29:12.190Z,100428.28
2024-05-09T16:31:13.910Z,100430.84
2024-05-09T16:33:20.014Z,100425.56
2024-05-09T16:35:21.842Z,100431.72
2024-05-09T16:37:25.897Z,100436.94
2024-05-09T16:39:29.144Z,100434.00
2024-05-09T16:41:30.774Z,100435.56
2024-05-09T16:43:32.583Z,100435.47
2024-05-09T16:45:34.437Z,100435.09
2024-05-09T16:47:36.383Z,100429.59
2024-05-09T16:49:38.160Z,100434.16
2024-05-09T16:51:39.831Z,100430.72
2024-05-09T16:53:41.482Z,100442.59
2024-05-09T16:55:43.132Z,100432.31
2024-05-09T16:57:44.810Z,100438.44
2024-05-09T16:59:46.527Z,100431.34
2024-05-09T17:01:48.204Z,100430.91
2024-05-09T17:03:50.216Z,100431.22
2024-05-09T17:05:52.296Z,100427.25
2024-05-09T17:07:54.743Z,100439.31
2024-05-09T17:09:56.489Z,100431.50
2024-05-09T17:11:58.156Z,100442.69
2024-05-09T17:13:59.850Z,100439.72
2024-05-09T17:16:02.478Z,100431.94
2024-05-09T17:18:08.581Z,100438.19
2024-05-09T17:20:22.558Z,100442.06
2024-05-09T17:22:31.021Z,100442.41
2024-05-09T17:24:32.720Z,100443.50
2024-05-09T17:26:34.468Z,100439.56
2024-05-09T17:28:36.356Z,100444.97
2024-05-09T17:30:39.990Z,100445.81
2024-05-09T17:32:43.251Z,100442.41
2024-05-09T17:34:45.074Z,100446.81
2024-05-09T17:36:46.821Z,100452.84
2024-05-09T17:38:49.153Z,100447.72
2024-05-09T17:40:51.990Z,100454.59
2024-05-09T17:42:53.866Z,100446.63
2024-05-09T17:44:55.517Z,100451.50
2024-05-09T17:46:57.188Z,100452.84
2024-05-09T17:49:00.956Z,100447.38
2024-05-09T17:51:03.052Z,100448.34
2024-05-09T17:53:05.529Z,100454.31
2024-05-09T17:55:07.385Z,100457.81
2024-05-09T17:57:09.053Z,100458.97
2024-05-09T17:59:11.671Z,100451.63
2024-05-09T18:01:13.999Z,100462.69
2024-05-09T18:03:15.701Z,100460.81
2024-05-09T18:05:17.474Z,100463.34
2024-05-09T18:07:19.377Z,100462.91
2024-05-09T18:09:21.132Z,100464.72
2024-05-09T18:11:23.899Z,100464.94
2024-05-09T18:13:25.887Z,100475.41
2024-05-09T18:15:27.621Z,100471.69
2024-05-09T18:17:29.349Z,100475.34
2024-05-09T18:19:31.140Z,100480.75
2024-05-09T18:21:33.144Z,100484.53
2024-05-09T18:23:34.816Z,100485.25
2024-05-09T18:25:36.627Z,100489.75
2024-05-09T18:27:38.494Z,100490.94
2024-05-09T18:29:40.226Z,100485.38
2024-05-09T18:31:41.961Z,100494.50
2024-05-09T18:33:43.906Z,100487.09
2024-05-09T18:35:45.892Z,100492.31
2024-05-09T18:37:48.053Z,100498.47
2024-05-09T18:39:49.790Z,100499.66
2024-05-09T18:41:51.873Z,100508.00
2024-05-09T18:43:53.994Z,100505.84
2024-05-09T18:45:56.028Z,100503.91
2024-05-09T18:47:58.327Z,100513.00
2024-05-09T18:50:00.516Z,100514.38
2024-05-09T18:52:02.908Z,100512.53
2024-05-09T18:54:04.900Z,100524.53
2024-05-09T18:56:07.476Z,100533.03
2024-05-09T18:58:10.241Z,100528.78
2024-05-09T19:00:19.312Z,100533.72
2024-05-09T19:02:29.189Z,100537.84
2024-05-09T19:04:31.350Z,100544.72
2024-05-09T19:06:35.391Z,100548.97
2024-05-09T19:08:37.183Z,100537.38
2024-05-09T19:10:40.352Z,100544.31
2024-05-09T19:12:42.456Z,100552.03
2024-05-09T19:14:44.258Z,100553.16
2024-05-09T19:16:46.472Z,100556.41
2024-05-09T19:18:50.435Z,100555.09
2024-05-09T19:20:53.475Z,100556.69
2024-05-09T19:22:56.991Z,100555.38
2024-05-09T19:24:59.013Z,100554.41
2024-05-09T19:27:02.924Z,100556.53
2024-05-09T19:29:05.277Z,100563.34
2024-05-09T19:31:07.160Z,100565.84
2024-05-09T19:33:14.256Z,100558.50
2024-05-09T19:35:16.965Z,100563.81
2024-05-09T19:37:19.006Z,100569.69
2024-05-09T19:39:21.088Z,100571.50
2024-05-09T19:41:23.236Z,100578.25
2024-05-09T19:43:25.703Z,100579.44
2024-05-09T19:45:28.055Z,100583.69
2024-05-09T19:47:31.050Z,100584.13
2024-05-09T19:49:33.525Z,100584.41
2024-05-09T19:51:35.983Z,100577.63
2024-05-09T19:53:38.264Z,100586.66
2024-05-09T19:55:40.774Z,100584.44
2024-05-09T19:57:42.960Z,100596.00
2024-05-09T19:59:45.151Z,100587.72
2024-05-09T20:01:47.677Z,100578.56
2024-05-09T20:03:50.228Z,100585.16
2024-05-09T20:05:52.242Z,100590.72
2024-05-09T20:07:54.004Z,100586.13
2024-05-09T20:09:55.888Z,100594.66
2024-05-09T20:11:57.593Z,100594.09
2024-05-09T20:13:59.736Z,100601.44
2024-05-09T20:16:01.840Z,100597.06
2024-05-09T20:18:04.820Z,100603.91
2024-05-09T20:20:09.326Z,100606.13
2024-05-09T20:22:16.200Z,100608.47
2024-05-09T20:24:19.572Z,100618.31
2024-05-09T20:26:21.668Z,100609.75
2024-05-09T20:28:24.986Z,100616.16
2024-05-09T20:30:32.508Z,100617.53
2024-05-09T20:32:36.267Z,100615.03
2024-05-09T20:34:39.638Z,100613.66
2024-05-09T20:36:41.884Z,100618.84
2024-05-09T20:38:43.743Z,100619.41
2024-05-09T20:40:45.602Z,100618.00
2024-05-09T20:42:47.845Z,100622.28
2024-05-09T20:44:50.205Z,100614.13
2024-05-09T20:46:52.020Z,100623.25
2024-05-09T20:48:55.277Z,100622.47
2024-05-09T20:50:57.103Z,100626.22
2024-05-09T20:52:58.770Z,100620.44
2024-05-09T20:55:00.575Z,100619.50
2024-05-09T20:57:02.272Z,100630.28
2024-05-09T20:59:03.917Z,100638.84
2024-05-09T21:01:05.625Z,100630.59
2024-05-09T21:03:07.766Z,100628.09
2024-05-09T21:05:09.764Z,100633.53
2024-05-09T21:07:11.677Z,100634.66
2024-05-09T21:09:13.472Z,100627.78
2024-05-09T21:11:15.088Z,100632.31
2024-05-09T21:13:16.763Z,100635.94
2024-05-09T21:15:18.425Z,100635.94
2024-05-09T21:17:20.147Z,100641.81
2024-05-09T21:19:21.872Z,100637.28
2024-05-09T21:21:23.585Z,100641.41
2024-05-09T21:23:25.209Z,100638.91
2024-05-09T21:25:26.886Z,100634.75
2024-05-09T21:27:28.538Z,100643.63
2024-05-09T21:29:30.159Z,100647.22
2024-05-09T21:31:32.010Z,100637.69
2024-05-09T21:33:36.126Z,100640.03
2024-05-09T21:35:37.942Z,100640.38
2024-05-09T21:37:39.636Z,100649.28
2024-05-09T21:39:42.112Z,100651.81
2024-05-09T21:41:43.745Z,100660.63
2024-05-09T21:43:45.367Z,100648.69
2024-05-09T21:45:47.022Z,100651.53
2024-05-09T21:47:48.723Z,100652.56
2024-05-09T21:49:50.442Z,100652.69
2024-05-09T21:51:52.097Z,100652.09
2024-05-09T21:53:55.442Z,100649.47
2024-05-09T21:55:57.060Z,100659.78
2024-05-09T21:57:58.746Z,100655.97
2024-05-09T22:00:00.405Z,100658.50
2024-05-09T22:02:02.227Z,100652.69
2024-05-09T22:04:04.084Z,100658.63
2024-05-09T22:06:06.020Z,100659.19
2024-05-09T22:08:07.653Z,100658.91
2024-05-09T22:10:16.067Z,100657.81
2024-05-09T22:12:24.003Z,100657.69
2024-05-09T22:14:25.646Z,100651.53
2024-05-09T22:16:27.353Z,100658.56
2024-05-09T22:18:29.028Z,100659.84
2024-05-09T22:20:36.740Z,100657.78
2024-05-09T22:22:40.678Z,100655.91
2024-05-09T22:24:42.360Z,100660.84
2024-05-09T22:26:44.012Z,100661.41
2024-05-09T22:28:45.631Z,100662.72
2024-05-09T22:30:49.303Z,100662.88
2024-05-09T22:32:51.032Z,100661.34
2024-05-09T22:34:52.797Z,100653.16
2024-05-09T22:36:54.474Z,100663.94
2024-05-09T22:38:56.135Z,100663.53
2024-05-09T22:40:57.924Z,100660.97
2024-05-09T22:42:59.722Z,100662.75
2024-05-09T22:45:01.390Z,100663.38
2024-05-09T22:47:03.235Z,100656.16
2024-05-09T22:49:05.783Z,100666.09
2024-05-09T22:51:07.483Z,100657.72
2024-05-09T22:53:09.098Z,100654.59
2024-05-09T22:55:10.898Z,100658.28
2024-05-09T22:57:12.634Z,100652.22
2024-05-09T22:59:14.276Z,100656.06
2024-05-09T23:01:16.004Z,100653.59
2024-05-09T23:03:19.778Z,100665.25
2024-05-09T23:05:21.674Z,100669.94
2024-05-09T23:07:23.513Z,100660.34
2024-05-09T23:09:25.140Z,100672.13
2024-05-09T23:11:26.887Z,100667.75
2024-05-09T23:13:28.652Z,100668.75
2024-05-09T23:15:30.380Z,100667.22
2024-05-09T23:17:32.098Z,100660.09
2024-05-09T23:19:34.555Z,100664.53
2024-05-09T23:21:39.627Z,100668.09
2024-05-09T23:23:41.458Z,100661.94
2024-05-09T23:25:43.223Z,100662.44
2024-05-09T23:27:44.897Z,100656.13